TFS weather

Tenerife South Airport
Tenerife Island, Canary Islands, Spain

Public forecast

Using degrees Celsius for public forecast. Weather courtesy of forecast.io.

Current aviation weather report (METAR) for Tenerife South Airport

Retrieved 2019/11/21 21:30 UTC (0 seconds ago):

GCTS 212130Z 36006KT 9999 FEW030 20/13 Q1016 NOSIG

Aviation forecast (TAF) for Tenerife South Airport

Retrieved 2019/11/21 21:27 UTC (0 seconds ago):

TAF GCTS 212000Z 2121/2221 02005KT 9999 SCT030 TX25/2214Z TN18/2206Z BECMG 2209/2211 10010KT PROB40 TEMPO 2217/2221 18008KT